Tynemouth, United Kingdom
Current Conditions -  °F | °C
As of 9:20 PM on Wednesday 26 Nov 2014 (Local Time) from EGNT Reporting Station
Moderate Fog Moderate Fog  
Wind Chill: 43°   Ceiling: 2400
Heat Index: 43°   Visibility: 0.56mi
Dew Point: 43°   Wind: 0mph
Humidity: 100%   Direction: NA
Pressure: 29.8"   Gusts: NA
Location:  55.02°N, 1.43°W
Report Text: EGNT 262120Z 00000KT 0900 FG FEW010 BKN024 06/06 Q1009
Loading
Personal Weather Stations






























Interactive Weather Map New forecast layout! Learn more

10-Day Weather Forecast

Advertisements
Track Severe Weather on mobile